createdAt,value
2018-08-07T00:01:36.151Z,11.03
2018-08-07T00:04:04.932Z,10.50
2018-08-07T00:06:33.540Z,10.47
2018-08-07T00:09:02.286Z,10.30
2018-08-07T00:11:31.006Z,10.80
2018-08-07T00:13:59.735Z,9.93
2018-08-07T00:16:28.401Z,10.40
2018-08-07T00:18:57.054Z,9.83
2018-08-07T00:21:25.682Z,9.83
2018-08-07T00:23:54.341Z,9.80
2018-08-07T00:26:22.991Z,8.97
2018-08-07T00:28:51.589Z,9.33
2018-08-07T00:31:20.206Z,10.13
2018-08-07T00:33:48.839Z,10.70
2018-08-07T00:36:17.506Z,10.30
2018-08-07T00:38:46.155Z,12.53
2018-08-07T00:41:14.820Z,10.63
2018-08-07T00:43:43.470Z,10.17
2018-08-07T00:46:12.172Z,9.60
2018-08-07T00:48:40.878Z,10.50
2018-08-07T00:51:09.534Z,9.67
2018-08-07T00:53:38.152Z,10.80
2018-08-07T00:56:06.912Z,9.63
2018-08-07T00:58:35.615Z,10.23
2018-08-07T01:01:04.234Z,9.00
2018-08-07T01:03:33.132Z,9.90
2018-08-07T01:06:01.835Z,10.20
2018-08-07T01:08:30.450Z,10.57
2018-08-07T01:10:59.118Z,10.60
2018-08-07T01:13:27.787Z,11.53
2018-08-07T01:15:56.454Z,10.43
2018-08-07T01:18:25.114Z,10.53
2018-08-07T01:20:53.681Z,9.97
2018-08-07T01:23:22.374Z,10.10
2018-08-07T01:25:51.062Z,10.63
2018-08-07T01:28:19.723Z,10.50
2018-08-07T01:30:48.360Z,11.27
2018-08-07T01:33:16.932Z,10.47
2018-08-07T01:35:45.574Z,10.60
2018-08-07T01:38:14.243Z,10.97
2018-08-07T01:40:42.896Z,10.83
2018-08-07T01:43:11.535Z,11.77
2018-08-07T01:45:40.183Z,11.17
2018-08-07T01:48:08.834Z,10.53
2018-08-07T01:50:37.509Z,10.80
2018-08-07T01:53:06.219Z,10.40
2018-08-07T01:55:34.840Z,10.40
2018-08-07T01:58:03.507Z,11.33
2018-08-07T02:00:32.161Z,11.10
2018-08-07T02:03:00.795Z,11.53
2018-08-07T02:05:29.386Z,10.57
2018-08-07T02:07:57.991Z,13.50
2018-08-07T02:10:26.639Z,10.80
2018-08-07T02:12:55.282Z,13.63
2018-08-07T02:15:23.946Z,14.93
2018-08-07T02:17:52.575Z,12.70
2018-08-07T02:20:21.187Z,12.07
2018-08-07T02:22:49.858Z,10.77
2018-08-07T02:25:19.562Z,11.73
2018-08-07T02:27:48.694Z,18.83
2018-08-07T02:30:18.016Z,10.40
2018-08-07T02:32:46.661Z,10.07
2018-08-07T02:35:16.202Z,9.63
2018-08-07T02:37:45.744Z,10.80
2018-08-07T02:40:14.894Z,10.93
2018-08-07T02:42:43.974Z,11.60
2018-08-07T02:45:16.446Z,13.70
2018-08-07T02:47:45.562Z,14.10
2018-08-07T02:50:16.825Z,10.70
2018-08-07T02:52:45.631Z,11.17
2018-08-07T02:55:14.322Z,11.93
2018-08-07T02:57:43.624Z,13.07
2018-08-07T03:00:17.763Z,10.43
2018-08-07T03:02:46.638Z,12.00
2018-08-07T03:05:15.429Z,11.43
2018-08-07T03:07:44.175Z,12.17
2018-08-07T03:10:12.819Z,11.67
2018-08-07T03:12:41.438Z,10.90
2018-08-07T03:15:13.757Z,11.73
2018-08-07T03:17:43.062Z,11.33
2018-08-07T03:20:11.753Z,12.10
2018-08-07T03:22:40.394Z,13.07
2018-08-07T03:25:10.763Z,13.77
2018-08-07T03:27:39.410Z,13.40
2018-08-07T03:30:10.295Z,15.27
2018-08-07T03:32:39.155Z,16.40
2018-08-07T03:35:08.022Z,16.27
2018-08-07T03:37:37.368Z,14.50
2018-08-07T03:40:08.411Z,14.97
2018-08-07T03:42:37.163Z,14.50
2018-08-07T03:45:06.585Z,11.60
2018-08-07T03:47:35.333Z,14.90
2018-08-07T03:50:04.018Z,14.17
2018-08-07T03:52:32.743Z,13.03
2018-08-07T03:55:01.407Z,16.63
2018-08-07T03:57:30.127Z,16.17
2018-08-07T03:59:58.743Z,17.77
2018-08-07T04:02:27.407Z,12.90
2018-08-07T04:04:56.007Z,16.50
2018-08-07T04:07:24.647Z,12.23
2018-08-07T04:09:53.287Z,13.77
2018-08-07T04:12:22.264Z,16.60
2018-08-07T04:14:50.850Z,16.13
2018-08-07T04:17:19.486Z,12.87
2018-08-07T04:19:48.127Z,18.57
2018-08-07T04:22:16.746Z,16.73
2018-08-07T04:24:45.383Z,15.03
2018-08-07T04:27:14.058Z,16.57
2018-08-07T04:29:42.668Z,20.13
2018-08-07T04:32:11.291Z,20.80
2018-08-07T04:34:39.961Z,20.70
2018-08-07T04:37:08.539Z,21.30
2018-08-07T04:39:37.203Z,20.27
2018-08-07T04:42:05.863Z,20.03
2018-08-07T04:44:34.812Z,18.57
2018-08-07T04:47:03.467Z,18.30
2018-08-07T04:49:32.106Z,24.07
2018-08-07T04:52:00.779Z,17.70
2018-08-07T04:54:29.506Z,18.53
2018-08-07T04:56:58.118Z,17.43
2018-08-07T04:59:26.678Z,17.67
2018-08-07T05:01:55.339Z,18.40
2018-08-07T05:04:23.957Z,22.23
2018-08-07T05:06:52.619Z,21.60
2018-08-07T05:09:21.258Z,18.87
2018-08-07T05:11:49.884Z,19.17
2018-08-07T05:14:18.559Z,18.80
2018-08-07T05:16:47.246Z,20.47
2018-08-07T05:19:15.907Z,19.87
2018-08-07T05:21:44.560Z,21.90
2018-08-07T05:24:13.244Z,24.63
2018-08-07T05:26:41.903Z,21.50
2018-08-07T05:29:10.643Z,29.03
2018-08-07T05:31:39.270Z,21.00
2018-08-07T05:34:08.230Z,20.37
2018-08-07T05:36:36.893Z,22.03
2018-08-07T05:39:08.143Z,24.03
2018-08-07T05:41:36.823Z,26.30
2018-08-07T05:44:05.563Z,20.75
2018-08-07T05:46:34.287Z,21.87
2018-08-07T05:49:02.987Z,25.75
2018-08-07T05:51:31.902Z,22.05
2018-08-07T05:54:00.626Z,27.52
2018-08-07T05:56:29.378Z,23.32
2018-08-07T05:58:57.998Z,21.57
2018-08-07T06:01:26.641Z,25.00
2018-08-07T06:03:55.424Z,24.05
2018-08-07T06:06:24.218Z,23.27
2018-08-07T06:08:52.853Z,24.02
2018-08-07T06:11:21.550Z,28.15
2018-08-07T06:13:50.193Z,24.60
2018-08-07T06:16:18.811Z,23.87
2018-08-07T06:18:47.484Z,22.35
2018-08-07T06:21:16.162Z,24.90
2018-08-07T06:23:44.784Z,24.50
2018-08-07T06:26:13.486Z,21.87
2018-08-07T06:28:42.249Z,22.37
2018-08-07T06:31:10.858Z,22.25
2018-08-07T06:33:39.566Z,20.85
2018-08-07T06:36:08.302Z,21.62
2018-08-07T06:38:36.956Z,22.73
2018-08-07T06:41:05.651Z,21.25
2018-08-07T06:43:34.362Z,21.75
2018-08-07T06:46:03.031Z,19.65
2018-08-07T06:48:31.719Z,24.45
2018-08-07T06:51:00.367Z,21.87
2018-08-07T06:53:28.950Z,23.20
2018-08-07T06:55:57.663Z,22.80
2018-08-07T06:58:26.316Z,24.63
2018-08-07T07:00:55.003Z,25.48
2018-08-07T07:03:23.629Z,23.42
2018-08-07T07:05:52.294Z,25.37
2018-08-07T07:08:20.942Z,25.88
2018-08-07T07:10:49.551Z,24.15
2018-08-07T07:13:18.220Z,24.43
2018-08-07T07:15:46.891Z,22.87
2018-08-07T07:18:15.554Z,25.95
2018-08-07T07:20:44.193Z,23.95
2018-08-07T07:23:12.804Z,24.07
2018-08-07T07:25:41.422Z,25.77
2018-08-07T07:28:10.073Z,22.82
2018-08-07T07:30:38.768Z,24.50
2018-08-07T07:33:07.448Z,23.90
2018-08-07T07:35:36.112Z,24.25
2018-08-07T07:38:04.766Z,22.48
2018-08-07T07:40:33.379Z,22.93
2018-08-07T07:43:02.242Z,22.58
2018-08-07T07:45:30.975Z,25.30
2018-08-07T07:47:59.616Z,21.10
2018-08-07T07:50:28.313Z,20.95
2018-08-07T07:52:56.931Z,19.92
2018-08-07T07:55:25.630Z,22.17
2018-08-07T07:57:54.555Z,20.10
2018-08-07T08:00:25.364Z,18.57
2018-08-07T08:02:54.258Z,19.40
2018-08-07T08:05:23.923Z,17.62
2018-08-07T08:07:52.886Z,17.73
2018-08-07T08:10:21.556Z,18.87
2018-08-07T08:12:50.312Z,16.75
2018-08-07T08:15:19.409Z,18.48
2018-08-07T08:17:48.808Z,17.35
2018-08-07T08:20:22.479Z,17.48
2018-08-07T08:22:52.023Z,17.80
2018-08-07T08:25:20.816Z,18.20
2018-08-07T08:27:49.548Z,17.98
2018-08-07T08:30:18.626Z,19.10
2018-08-07T08:32:47.632Z,17.10
2018-08-07T08:35:17.516Z,18.10
2018-08-07T08:37:46.678Z,18.48
2018-08-07T08:40:17.760Z,18.00
2018-08-07T08:42:46.483Z,16.45
2018-08-07T08:45:19.590Z,15.72
2018-08-07T08:47:50.472Z,16.27
2018-08-07T08:50:20.216Z,16.12
2018-08-07T08:52:48.962Z,19.80
2018-08-07T08:55:17.626Z,19.25
2018-08-07T08:57:46.496Z,15.93
2018-08-07T09:00:18.903Z,13.93
2018-08-07T09:02:47.950Z,11.48
2018-08-07T09:05:16.712Z,12.88
2018-08-07T09:07:45.625Z,13.72
2018-08-07T09:10:19.528Z,15.20
2018-08-07T09:12:48.617Z,15.58
2018-08-07T09:15:17.458Z,15.85
2018-08-07T09:17:46.218Z,13.18
2018-08-07T09:20:18.171Z,13.10
2018-08-07T09:22:46.783Z,12.88
2018-08-07T09:25:15.523Z,13.00
2018-08-07T09:27:44.298Z,12.43
2018-08-07T09:30:19.503Z,12.50
2018-08-07T09:32:49.203Z,13.65
2018-08-07T09:35:18.702Z,12.20
2018-08-07T09:37:47.454Z,20.55
2018-08-07T09:40:17.329Z,11.93
2018-08-07T09:42:47.410Z,11.38
2018-08-07T09:45:21.722Z,10.50
2018-08-07T09:47:50.489Z,9.43
2018-08-07T09:50:19.617Z,9.00
2018-08-07T09:52:48.880Z,9.93
2018-08-07T09:55:17.603Z,10.60
2018-08-07T09:57:46.298Z,11.28
2018-08-07T10:00:22.138Z,10.60
2018-08-07T10:02:52.631Z,10.28
2018-08-07T10:05:23.240Z,7.60
2018-08-07T10:07:51.948Z,11.55
2018-08-07T10:10:21.033Z,7.78
2018-08-07T10:12:49.738Z,7.60
2018-08-07T10:15:18.643Z,8.93
2018-08-07T10:17:47.403Z,8.25
2018-08-07T10:20:16.351Z,7.58
2018-08-07T10:22:45.169Z,7.83
2018-08-07T10:25:16.062Z,7.62
2018-08-07T10:27:45.758Z,8.63
2018-08-07T10:30:16.694Z,8.93
2018-08-07T10:32:45.506Z,8.55
2018-08-07T10:35:14.817Z,8.55
2018-08-07T10:37:44.295Z,7.60
2018-08-07T10:40:14.689Z,8.23
2018-08-07T10:42:43.486Z,7.92
2018-08-07T10:45:16.294Z,8.83
2018-08-07T10:47:45.059Z,8.03
2018-08-07T10:50:16.963Z,9.20
2018-08-07T10:52:45.804Z,7.33
2018-08-07T10:55:14.588Z,8.50
2018-08-07T10:57:45.298Z,7.17
2018-08-07T11:00:22.136Z,8.15
2018-08-07T11:02:51.599Z,7.90
2018-08-07T11:05:21.590Z,7.85
2018-08-07T11:07:50.467Z,7.58
2018-08-07T11:10:19.495Z,7.15
2018-08-07T11:12:48.541Z,6.83
2018-08-07T11:15:21.407Z,12.30
2018-08-07T11:17:50.837Z,7.65
2018-08-07T11:20:19.714Z,7.40
2018-08-07T11:22:49.512Z,8.15
2018-08-07T11:25:19.384Z,8.33
2018-08-07T11:27:48.135Z,7.10
2018-08-07T11:30:18.702Z,7.17
2018-08-07T11:32:47.803Z,7.35
2018-08-07T11:35:16.774Z,7.67
2018-08-07T11:37:47.594Z,7.55
2018-08-07T11:40:17.955Z,6.92
2018-08-07T11:42:47.604Z,7.85
2018-08-07T11:45:31.078Z,7.65
2018-08-07T11:47:59.883Z,8.00
2018-08-07T11:50:30.854Z,8.38
2018-08-07T11:52:59.618Z,7.65
2018-08-07T11:55:28.795Z,7.37
2018-08-07T11:57:57.527Z,7.70
2018-08-07T12:00:40.041Z,11.85
2018-08-07T12:03:11.670Z,8.38
2018-08-07T12:05:40.324Z,7.70
2018-08-07T12:08:09.356Z,7.87
2018-08-07T12:10:38.012Z,8.13
2018-08-07T12:13:06.823Z,7.85
2018-08-07T12:15:35.513Z,8.40
2018-08-07T12:18:04.182Z,7.70
2018-08-07T12:20:32.778Z,8.13
2018-08-07T12:23:01.508Z,7.45
2018-08-07T12:25:30.327Z,8.50
2018-08-07T12:27:59.030Z,8.18
2018-08-07T12:30:29.776Z,7.15
2018-08-07T12:32:58.982Z,7.40
2018-08-07T12:35:27.691Z,7.45
2018-08-07T12:37:56.476Z,7.53
2018-08-07T12:40:27.828Z,7.15
2018-08-07T12:42:59.704Z,8.15
2018-08-07T12:45:28.408Z,7.55
2018-08-07T12:47:57.161Z,7.28
2018-08-07T12:50:25.810Z,8.43
2018-08-07T12:52:54.551Z,8.10
2018-08-07T12:55:24.011Z,7.15
2018-08-07T12:57:53.175Z,7.80
2018-08-07T13:00:23.314Z,9.43
2018-08-07T13:02:52.118Z,10.55
2018-08-07T13:05:20.960Z,10.55
2018-08-07T13:07:49.745Z,10.75
2018-08-07T13:10:19.886Z,11.83
2018-08-07T13:12:49.248Z,11.00
2018-08-07T13:15:19.088Z,14.25
2018-08-07T13:17:48.159Z,12.88
2018-08-07T13:20:16.972Z,14.18
2018-08-07T13:22:46.317Z,12.88
2018-08-07T13:25:17.039Z,12.82
2018-08-07T13:27:45.746Z,17.70
2018-08-07T13:30:25.656Z,11.53
2018-08-07T13:32:54.464Z,13.03
2018-08-07T13:35:23.326Z,12.03
2018-08-07T13:37:52.646Z,16.80
2018-08-07T13:40:22.817Z,12.47
2018-08-07T13:42:51.462Z,13.50
2018-08-07T13:45:21.767Z,13.03
2018-08-07T13:47:50.498Z,12.40
2018-08-07T13:50:20.246Z,12.55
2018-08-07T13:52:49.545Z,11.43
2018-08-07T13:55:19.134Z,11.10
2018-08-07T13:57:47.997Z,11.55
2018-08-07T14:00:19.619Z,11.63
2018-08-07T14:02:48.977Z,13.22
2018-08-07T14:05:18.584Z,13.25
2018-08-07T14:07:48.437Z,14.03
2018-08-07T14:10:17.844Z,12.37
2018-08-07T14:12:46.578Z,11.20
2018-08-07T14:15:16.388Z,11.97
2018-08-07T14:17:45.586Z,10.82
2018-08-07T14:20:15.298Z,11.90
2018-08-07T14:22:44.054Z,13.62
2018-08-07T14:25:21.850Z,12.50
2018-08-07T14:27:50.606Z,10.08
2018-08-07T14:30:21.386Z,10.18
2018-08-07T14:32:50.187Z,10.28
2018-08-07T14:35:19.137Z,10.08
2018-08-07T14:37:48.383Z,10.50
2018-08-07T14:40:22.189Z,9.40
2018-08-07T14:42:51.423Z,9.53
2018-08-07T14:45:24.447Z,9.58
2018-08-07T14:47:53.828Z,9.78
2018-08-07T14:50:24.532Z,9.93
2018-08-07T14:52:53.519Z,9.50
2018-08-07T14:55:22.349Z,9.60
2018-08-07T14:57:51.419Z,9.23
2018-08-07T15:00:25.192Z,9.63
2018-08-07T15:02:53.932Z,8.58
2018-08-07T15:05:22.712Z,10.43
2018-08-07T15:07:51.366Z,14.47
2018-08-07T15:10:25.539Z,13.15
2018-08-07T15:12:54.335Z,9.53
2018-08-07T15:15:28.184Z,8.68
2018-08-07T15:17:56.936Z,11.03
2018-08-07T15:20:27.188Z,10.48
2018-08-07T15:22:56.508Z,10.58
2018-08-07T15:25:25.590Z,11.15
2018-08-07T15:27:54.230Z,13.60
2018-08-07T15:30:24.849Z,9.88
2018-08-07T15:32:53.898Z,9.13
2018-08-07T15:35:24.001Z,10.43
2018-08-07T15:37:52.638Z,12.15
2018-08-07T15:40:21.590Z,9.15
2018-08-07T15:42:50.479Z,11.57
2018-08-07T15:45:21.462Z,10.43
2018-08-07T15:47:50.196Z,12.10
2018-08-07T15:50:19.475Z,9.83
2018-08-07T15:52:49.665Z,11.70
2018-08-07T15:55:19.923Z,10.27
2018-08-07T15:57:48.645Z,9.60
2018-08-07T16:00:20.605Z,10.68
2018-08-07T16:02:49.474Z,10.85
2018-08-07T16:05:18.494Z,9.93
2018-08-07T16:07:47.558Z,8.95
2018-08-07T16:10:17.443Z,9.03
2018-08-07T16:13:24.044Z,9.25
2018-08-07T16:15:52.732Z,9.55
2018-08-07T16:18:21.396Z,8.98
2018-08-07T16:20:50.188Z,13.47
2018-08-07T16:23:18.947Z,10.53
2018-08-07T16:25:47.610Z,9.97
2018-08-07T16:28:16.294Z,10.03
2018-08-07T16:30:44.981Z,8.57
2018-08-07T16:33:13.655Z,10.13
2018-08-07T16:35:42.438Z,9.23
2018-08-07T16:38:11.147Z,10.53
2018-08-07T16:40:39.879Z,10.97
2018-08-07T16:43:08.586Z,11.60
2018-08-07T16:45:37.232Z,13.50
2018-08-07T16:48:06.341Z,9.47
2018-08-07T16:50:35.195Z,11.13
2018-08-07T16:53:03.878Z,9.73
2018-08-07T16:55:32.527Z,10.77
2018-08-07T16:58:01.263Z,10.97
2018-08-07T17:00:30.080Z,13.23
2018-08-07T17:02:58.755Z,10.60
2018-08-07T17:05:27.450Z,15.27
2018-08-07T17:07:56.262Z,11.07
2018-08-07T17:10:27.616Z,12.07
2018-08-07T17:12:56.418Z,10.83
2018-08-07T17:15:25.177Z,11.30
2018-08-07T17:17:53.926Z,11.17
2018-08-07T17:20:23.382Z,11.77
2018-08-07T17:22:52.686Z,12.10
2018-08-07T17:25:22.478Z,12.10
2018-08-07T17:27:51.438Z,12.03
2018-08-07T17:30:22.575Z,12.27
2018-08-07T17:32:51.403Z,12.70
2018-08-07T17:35:22.445Z,13.07
2018-08-07T17:37:52.540Z,12.43
2018-08-07T17:40:23.614Z,13.50
2018-08-07T17:42:52.389Z,13.17
2018-08-07T17:45:21.408Z,14.23
2018-08-07T17:47:50.316Z,14.73
2018-08-07T17:50:20.397Z,13.70
2018-08-07T17:52:49.223Z,13.07
2018-08-07T17:55:18.219Z,12.97
2018-08-07T17:57:47.664Z,15.60
2018-08-07T18:00:19.071Z,14.10
2018-08-07T18:02:47.908Z,14.57
2018-08-07T18:05:16.586Z,15.77
2018-08-07T18:07:46.858Z,15.20
2018-08-07T18:10:16.913Z,15.60
2018-08-07T18:12:45.792Z,16.30
2018-08-07T18:15:15.679Z,16.40
2018-08-07T18:17:44.876Z,19.07
2018-08-07T18:20:15.284Z,17.53
2018-08-07T18:22:44.054Z,16.93
2018-08-07T18:25:12.796Z,19.20
2018-08-07T18:27:41.628Z,24.50
2018-08-07T18:30:15.312Z,18.97
2018-08-07T18:32:44.465Z,15.77
2018-08-07T18:35:17.123Z,14.77
2018-08-07T18:37:45.795Z,16.23
2018-08-07T18:40:14.535Z,14.70
2018-08-07T18:42:43.259Z,17.93
2018-08-07T18:45:13.152Z,16.77
2018-08-07T18:47:42.496Z,18.23
2018-08-07T18:50:13.681Z,18.17
2018-08-07T18:52:42.554Z,15.37
2018-08-07T18:55:12.967Z,17.33
2018-08-07T18:57:42.152Z,17.73
2018-08-07T19:00:15.645Z,17.83
2018-08-07T19:02:44.367Z,17.57
2018-08-07T19:05:14.848Z,18.20
2018-08-07T19:07:43.510Z,17.93
2018-08-07T19:10:12.618Z,19.47
2018-08-07T19:12:41.458Z,22.83
2018-08-07T19:15:11.235Z,18.50
2018-08-07T19:17:39.901Z,19.90
2018-08-07T19:20:09.668Z,25.07
2018-08-07T19:22:38.359Z,19.20
2018-08-07T19:25:08.316Z,20.37
2018-08-07T19:27:37.097Z,21.50
2018-08-07T19:30:09.914Z,19.40
2018-08-07T19:32:39.032Z,19.13
2018-08-07T19:35:08.401Z,19.23
2018-08-07T19:37:37.244Z,17.50
2018-08-07T19:40:07.636Z,17.43
2018-08-07T19:42:36.782Z,18.13
2018-08-07T19:45:07.497Z,21.87
2018-08-07T19:47:36.254Z,17.80
2018-08-07T19:50:05.923Z,17.60
2018-08-07T19:52:34.891Z,17.67
2018-08-07T19:55:03.638Z,18.30
2018-08-07T19:57:32.430Z,19.50
2018-08-07T20:00:01.168Z,17.80
2018-08-07T20:02:29.818Z,18.17
2018-08-07T20:04:58.475Z,18.30
2018-08-07T20:07:27.142Z,18.10
2018-08-07T20:09:55.811Z,21.07
2018-08-07T20:12:24.494Z,18.63
2018-08-07T20:14:53.116Z,23.47
2018-08-07T20:17:21.764Z,22.10
2018-08-07T20:19:50.522Z,27.07
2018-08-07T20:22:19.424Z,21.90
2018-08-07T20:24:48.142Z,20.57
2018-08-07T20:27:16.849Z,22.57
2018-08-07T20:29:45.534Z,19.67
2018-08-07T20:32:14.182Z,18.80
2018-08-07T20:34:42.895Z,20.17
2018-08-07T20:37:11.551Z,18.47
2018-08-07T20:39:40.226Z,20.40
2018-08-07T20:42:08.936Z,19.53
2018-08-07T20:44:37.622Z,19.83
2018-08-07T20:47:06.390Z,23.03
2018-08-07T20:49:35.116Z,19.83
2018-08-07T20:52:03.775Z,21.23
2018-08-07T20:54:32.447Z,31.27
2018-08-07T20:57:01.085Z,29.17
2018-08-07T20:59:29.729Z,21.23
2018-08-07T21:01:58.440Z,21.73
2018-08-07T21:04:27.124Z,23.10
2018-08-07T21:06:55.792Z,20.40
2018-08-07T21:09:24.421Z,21.47
2018-08-07T21:11:53.136Z,20.40
2018-08-07T21:14:21.851Z,21.20
2018-08-07T21:16:50.587Z,21.87
2018-08-07T21:19:19.277Z,20.93
2018-08-07T21:21:47.948Z,22.83
2018-08-07T21:24:16.621Z,20.27
2018-08-07T21:26:45.319Z,18.80
2018-08-07T21:29:13.998Z,19.50
2018-08-07T21:31:42.648Z,19.50
2018-08-07T21:34:11.272Z,20.47
2018-08-07T21:36:40.045Z,21.87
2018-08-07T21:39:09.844Z,22.20
2018-08-07T21:41:38.727Z,23.00
2018-08-07T21:44:07.623Z,20.27
2018-08-07T21:46:36.744Z,20.20
2018-08-07T21:49:05.656Z,20.10
2018-08-07T21:51:34.333Z,19.50
2018-08-07T21:54:03.157Z,26.00
2018-08-07T21:56:31.900Z,29.07
2018-08-07T21:59:00.628Z,24.43
2018-08-07T22:01:29.322Z,24.63
2018-08-07T22:03:57.937Z,21.90
2018-08-07T22:06:26.577Z,18.80
2018-08-07T22:08:55.222Z,18.90
2018-08-07T22:11:23.847Z,19.50
2018-08-07T22:13:52.558Z,15.10
2018-08-07T22:16:21.294Z,15.03
2018-08-07T22:18:49.996Z,16.43
2018-08-07T22:21:18.772Z,14.80
2018-08-07T22:23:47.428Z,16.50
2018-08-07T22:26:16.117Z,15.80
2018-08-07T22:28:44.777Z,15.93
2018-08-07T22:31:13.536Z,15.20
2018-08-07T22:33:42.164Z,15.73
2018-08-07T22:36:10.813Z,16.77
2018-08-07T22:38:39.466Z,16.80
2018-08-07T22:41:08.195Z,16.23
2018-08-07T22:43:36.819Z,16.70
2018-08-07T22:46:05.656Z,16.03
2018-08-07T22:48:34.271Z,16.13
2018-08-07T22:51:02.945Z,16.23
2018-08-07T22:53:31.630Z,16.50
2018-08-07T22:56:00.282Z,16.57
2018-08-07T22:58:28.926Z,18.47
2018-08-07T23:00:57.597Z,19.23
2018-08-07T23:03:26.289Z,19.73
2018-08-07T23:05:54.978Z,18.47
2018-08-07T23:08:23.686Z,18.43
2018-08-07T23:10:52.346Z,17.53
2018-08-07T23:13:21.009Z,20.83
2018-08-07T23:15:49.664Z,18.07
2018-08-07T23:18:18.294Z,18.33
2018-08-07T23:20:46.942Z,17.13
2018-08-07T23:23:15.590Z,20.03
2018-08-07T23:25:44.234Z,18.07
2018-08-07T23:28:12.862Z,17.60
2018-08-07T23:30:41.457Z,16.87
2018-08-07T23:33:10.185Z,16.17
2018-08-07T23:35:38.823Z,16.40
2018-08-07T23:38:07.592Z,16.00
2018-08-07T23:40:36.242Z,15.23
2018-08-07T23:43:04.935Z,15.60
2018-08-07T23:45:33.589Z,15.50
2018-08-07T23:48:02.229Z,15.07
2018-08-07T23:50:30.923Z,14.57
2018-08-07T23:52:59.615Z,15.47
2018-08-07T23:55:28.256Z,15.50
2018-08-07T23:57:56.943Z,15.53
